Seeley, WI

1:43 PM CST on December 04, 2016 (GMT -0600)
Three miles west of Seeley | | Change Station

Elev 1338 ft 46.13 °N, 91.40 °W | Updated 50 days ago

Overcast
Overcast
58.3 °F
Feels Like 58.3 °F
N
3.9
Wind Variable Wind from SE
Gusts 5.9 mph

Today
High -- | Low -- °F
--% Chance of Precip.
Yesterday
High -- | Low -- °F
Precip. -- in
Pressure 29.79 in
Visibility 1.8 miles
Clouds Scattered Clouds 900 ft
Overcast 1700 ft
Dew Point 37.0 °F
Humidity 45%
Rainfall in
Snow Depth Not available.
7:31 AM 4:20 PM
Waxing Crescent, 25% visible
SPECI KHYR 041937Z AUTO 17006KT 1 3/4SM -SN BR SCT009 OVC017 M01/M02 A2979 RMK AO2 P0001 T10061022
Pressure 29.79 in
Visibility 1.8 miles
Clouds Scattered Clouds 900 ft
Overcast 1700 ft
Dew Point 37.0 °F
Humidity 45%
Rainfall in
Snow Depth Not available.
7:31 AM 4:20 PM
Waxing Crescent, 25% visible
SPECI KHYR 041937Z AUTO 17006KT 1 3/4SM -SN BR SCT009 OVC017 M01/M02 A2979 RMK AO2 P0001 T10061022

10-Day Weather Forecast

Almanac

Astronomy

Dec. 04, 2016 Rise Set
Actual Time
Civil Twilight
Nautical Twilight
Astronomical Twilight
Moon
Length of Visible Light
Length of Day
Tomorrow will be .
, % of the Moon is Illuminated

Today's Extremes

State Highs State Lows

Community

WunderPhotos

Upload Photos

1,955,652 photos uploaded!

WunderBlog® & News

Nearby

Air Quality

  Air Quality AQ Index Pollutant
Not available.

Snow Depth

Station Depth Elevation

Earthquake Activity

City Distance Mag. Time & Date
Minimum magnitude displayed is 2.5.

Coastal Water Temperatures

Place Temperature

Stations

Nearby Weather Stations

Station Location Temp. Windchill Dew Point Humidity Wind Precip. Elev Updated Type
                   

Watches & Warnings

There are currently no watches in effect.